sensor_id;sensor_type;location;lat;lon;timestamp;P1;durP1;ratioP1;P2;durP2;ratioP2
77016;SDS011;65949;53.132;17.930;2024-01-15T00:00:51;10.80;;;4.60;;
77016;SDS011;65949;53.132;17.930;2024-01-15T00:03:38;11.00;;;5.00;;
77016;SDS011;65949;53.132;17.930;2024-01-15T00:06:05;12.50;;;4.90;;
77016;SDS011;65949;53.132;17.930;2024-01-15T00:08:31;13.00;;;6.20;;
77016;SDS011;65949;53.132;17.930;2024-01-15T00:10:58;12.40;;;5.50;;
77016;SDS011;65949;53.132;17.930;2024-01-15T00:13:24;10.50;;;4.70;;
77016;SDS011;65949;53.132;17.930;2024-01-15T00:15:51;12.40;;;5.40;;
77016;SDS011;65949;53.132;17.930;2024-01-15T00:18:18;14.00;;;6.80;;
77016;SDS011;65949;53.132;17.930;2024-01-15T00:20:44;12.90;;;6.10;;
77016;SDS011;65949;53.132;17.930;2024-01-15T00:23:11;11.30;;;5.20;;
77016;SDS011;65949;53.132;17.930;2024-01-15T00:25:37;13.60;;;5.90;;
77016;SDS011;65949;53.132;17.930;2024-01-15T00:28:04;11.90;;;4.90;;
77016;SDS011;65949;53.132;17.930;2024-01-15T00:30:31;9.40;;;3.80;;
77016;SDS011;65949;53.132;17.930;2024-01-15T00:32:57;11.70;;;5.20;;
77016;SDS011;65949;53.132;17.930;2024-01-15T00:35:24;12.20;;;4.80;;
77016;SDS011;65949;53.132;17.930;2024-01-15T00:37:51;12.50;;;5.70;;
77016;SDS011;65949;53.132;17.930;2024-01-15T00:40:17;10.40;;;4.90;;
77016;SDS011;65949;53.132;17.930;2024-01-15T00:42:44;14.10;;;5.90;;
77016;SDS011;65949;53.132;17.930;2024-01-15T00:45:10;13.30;;;4.60;;
77016;SDS011;65949;53.132;17.930;2024-01-15T00:47:37;13.90;;;5.50;;
77016;SDS011;65949;53.132;17.930;2024-01-15T00:50:04;13.50;;;6.00;;
77016;SDS011;65949;53.132;17.930;2024-01-15T00:52:31;13.30;;;6.00;;
77016;SDS011;65949;53.132;17.930;2024-01-15T00:54:58;12.80;;;5.60;;
77016;SDS011;65949;53.132;17.930;2024-01-15T00:57:25;12.70;;;6.00;;
77016;SDS011;65949;53.132;17.930;2024-01-15T00:59:51;11.90;;;5.50;;
77016;SDS011;65949;53.132;17.930;2024-01-15T01:02:18;11.90;;;5.90;;
77016;SDS011;65949;53.132;17.930;2024-01-15T01:04:44;12.10;;;5.20;;
77016;SDS011;65949;53.132;17.930;2024-01-15T01:07:11;12.30;;;5.70;;
77016;SDS011;65949;53.132;17.930;2024-01-15T01:09:37;11.10;;;4.80;;
77016;SDS011;65949;53.132;17.930;2024-01-15T01:12:04;12.30;;;5.90;;
77016;SDS011;65949;53.132;17.930;2024-01-15T01:14:31;13.40;;;5.40;;
77016;SDS011;65949;53.132;17.930;2024-01-15T01:16:58;12.40;;;5.50;;
77016;SDS011;65949;53.132;17.930;2024-01-15T01:19:25;11.90;;;5.40;;
77016;SDS011;65949;53.132;17.930;2024-01-15T01:21:51;9.20;;;4.10;;
77016;SDS011;65949;53.132;17.930;2024-01-15T01:24:18;12.20;;;5.40;;
77016;SDS011;65949;53.132;17.930;2024-01-15T01:26:44;12.20;;;5.30;;
77016;SDS011;65949;53.132;17.930;2024-01-15T01:29:13;11.40;;;4.70;;
77016;SDS011;65949;53.132;17.930;2024-01-15T01:31:46;10.90;;;4.40;;
77016;SDS011;65949;53.132;17.930;2024-01-15T01:34:13;13.20;;;5.70;;
77016;SDS011;65949;53.132;17.930;2024-01-15T01:36:41;12.60;;;5.60;;
77016;SDS011;65949;53.132;17.930;2024-01-15T01:39:09;12.80;;;5.30;;
77016;SDS011;65949;53.132;17.930;2024-01-15T01:41:36;12.90;;;5.80;;
77016;SDS011;65949;53.132;17.930;2024-01-15T01:44:04;10.60;;;4.20;;
77016;SDS011;65949;53.132;17.930;2024-01-15T01:46:30;11.90;;;4.90;;
77016;SDS011;65949;53.132;17.930;2024-01-15T01:48:58;11.10;;;5.30;;
77016;SDS011;65949;53.132;17.930;2024-01-15T01:51:27;10.20;;;4.20;;
77016;SDS011;65949;53.132;17.930;2024-01-15T01:53:54;10.80;;;4.70;;
77016;SDS011;65949;53.132;17.930;2024-01-15T01:56:21;11.40;;;4.70;;
77016;SDS011;65949;53.132;17.930;2024-01-15T01:58:48;10.60;;;4.50;;
77016;SDS011;65949;53.132;17.930;2024-01-15T02:01:15;11.20;;;4.40;;
77016;SDS011;65949;53.132;17.930;2024-01-15T02:03:42;10.90;;;4.30;;
77016;SDS011;65949;53.132;17.930;2024-01-15T02:06:09;12.00;;;5.10;;
77016;SDS011;65949;53.132;17.930;2024-01-15T02:08:36;10.30;;;4.40;;
77016;SDS011;65949;53.132;17.930;2024-01-15T02:11:03;12.40;;;4.90;;
77016;SDS011;65949;53.132;17.930;2024-01-15T02:13:29;10.60;;;4.80;;
77016;SDS011;65949;53.132;17.930;2024-01-15T02:15:56;8.80;;;2.90;;
77016;SDS011;65949;53.132;17.930;2024-01-15T02:18:23;10.70;;;4.50;;
77016;SDS011;65949;53.132;17.930;2024-01-15T02:20:50;8.20;;;3.10;;
77016;SDS011;65949;53.132;17.930;2024-01-15T02:23:16;9.90;;;4.30;;
77016;SDS011;65949;53.132;17.930;2024-01-15T02:25:44;12.30;;;4.80;;
77016;SDS011;65949;53.132;17.930;2024-01-15T02:28:16;10.90;;;4.50;;
77016;SDS011;65949;53.132;17.930;2024-01-15T02:30:44;10.40;;;4.30;;
77016;SDS011;65949;53.132;17.930;2024-01-15T02:33:11;6.80;;;2.30;;
77016;SDS011;65949;53.132;17.930;2024-01-15T02:35:38;11.30;;;4.60;;
77016;SDS011;65949;53.132;17.930;2024-01-15T02:38:05;10.60;;;4.30;;
77016;SDS011;65949;53.132;17.930;2024-01-15T02:40:32;9.50;;;3.90;;
77016;SDS011;65949;53.132;17.930;2024-01-15T02:42:59;12.70;;;5.10;;
77016;SDS011;65949;53.132;17.930;2024-01-15T02:45:27;11.00;;;4.00;;
77016;SDS011;65949;53.132;17.930;2024-01-15T02:47:54;10.50;;;4.20;;
77016;SDS011;65949;53.132;17.930;2024-01-15T02:50:20;9.60;;;3.70;;
77016;SDS011;65949;53.132;17.930;2024-01-15T02:52:47;11.10;;;4.20;;
77016;SDS011;65949;53.132;17.930;2024-01-15T02:55:14;10.20;;;3.90;;
77016;SDS011;65949;53.132;17.930;2024-01-15T02:57:40;10.40;;;3.90;;
77016;SDS011;65949;53.132;17.930;2024-01-15T03:00:07;11.30;;;5.00;;
77016;SDS011;65949;53.132;17.930;2024-01-15T03:02:38;9.80;;;3.80;;
77016;SDS011;65949;53.132;17.930;2024-01-15T03:05:11;10.10;;;4.20;;
77016;SDS011;65949;53.132;17.930;2024-01-15T03:07:38;10.30;;;4.50;;
77016;SDS011;65949;53.132;17.930;2024-01-15T03:10:05;10.40;;;4.60;;
77016;SDS011;65949;53.132;17.930;2024-01-15T03:12:32;9.40;;;4.10;;
77016;SDS011;65949;53.132;17.930;2024-01-15T03:14:59;10.80;;;5.00;;
77016;SDS011;65949;53.132;17.930;2024-01-15T03:17:26;10.90;;;5.10;;
77016;SDS011;65949;53.132;17.930;2024-01-15T03:19:52;10.50;;;4.40;;
77016;SDS011;65949;53.132;17.930;2024-01-15T03:22:19;11.10;;;4.70;;
77016;SDS011;65949;53.132;17.930;2024-01-15T03:24:46;12.10;;;5.60;;
77016;SDS011;65949;53.132;17.930;2024-01-15T03:27:12;10.80;;;5.00;;
77016;SDS011;65949;53.132;17.930;2024-01-15T03:29:39;13.10;;;5.50;;
77016;SDS011;65949;53.132;17.930;2024-01-15T03:32:07;12.60;;;5.80;;
77016;SDS011;65949;53.132;17.930;2024-01-15T03:34:33;12.90;;;5.50;;
77016;SDS011;65949;53.132;17.930;2024-01-15T03:37:00;10.40;;;4.40;;
77016;SDS011;65949;53.132;17.930;2024-01-15T03:39:26;14.20;;;6.00;;
77016;SDS011;65949;53.132;17.930;2024-01-15T03:41:53;7.30;;;2.30;;
77016;SDS011;65949;53.132;17.930;2024-01-15T03:44:20;15.10;;;5.70;;
77016;SDS011;65949;53.132;17.930;2024-01-15T03:46:46;12.40;;;5.70;;
77016;SDS011;65949;53.132;17.930;2024-01-15T03:49:13;14.10;;;6.10;;
77016;SDS011;65949;53.132;17.930;2024-01-15T03:51:39;13.70;;;6.50;;
77016;SDS011;65949;53.132;17.930;2024-01-15T03:54:06;16.00;;;5.90;;
77016;SDS011;65949;53.132;17.930;2024-01-15T03:56:32;14.00;;;5.90;;
77016;SDS011;65949;53.132;17.930;2024-01-15T03:58:59;14.00;;;5.10;;
77016;SDS011;65949;53.132;17.930;2024-01-15T04:01:26;12.00;;;4.90;;
77016;SDS011;65949;53.132;17.930;2024-01-15T04:03:52;13.50;;;5.80;;
77016;SDS011;65949;53.132;17.930;2024-01-15T04:06:19;13.80;;;5.40;;
77016;SDS011;65949;53.132;17.930;2024-01-15T04:08:45;13.20;;;4.90;;
77016;SDS011;65949;53.132;17.930;2024-01-15T04:11:12;11.80;;;4.30;;
77016;SDS011;65949;53.132;17.930;2024-01-15T04:13:38;13.10;;;5.50;;
77016;SDS011;65949;53.132;17.930;2024-01-15T04:16:05;13.00;;;5.10;;
77016;SDS011;65949;53.132;17.930;2024-01-15T04:18:32;13.10;;;4.90;;
77016;SDS011;65949;53.132;17.930;2024-01-15T04:20:58;10.80;;;4.60;;
77016;SDS011;65949;53.132;17.930;2024-01-15T04:23:25;11.40;;;4.20;;
77016;SDS011;65949;53.132;17.930;2024-01-15T04:25:51;11.20;;;3.90;;
77016;SDS011;65949;53.132;17.930;2024-01-15T04:28:18;7.00;;;2.40;;
77016;SDS011;65949;53.132;17.930;2024-01-15T04:30:44;9.20;;;3.10;;
77016;SDS011;65949;53.132;17.930;2024-01-15T04:33:11;8.10;;;2.70;;
77016;SDS011;65949;53.132;17.930;2024-01-15T04:35:37;7.30;;;2.80;;
77016;SDS011;65949;53.132;17.930;2024-01-15T04:38:04;8.90;;;2.60;;
77016;SDS011;65949;53.132;17.930;2024-01-15T04:40:31;8.40;;;2.20;;
77016;SDS011;65949;53.132;17.930;2024-01-15T04:42:57;5.20;;;1.50;;
77016;SDS011;65949;53.132;17.930;2024-01-15T04:45:24;6.70;;;2.10;;
77016;SDS011;65949;53.132;17.930;2024-01-15T04:47:54;7.70;;;2.40;;
77016;SDS011;65949;53.132;17.930;2024-01-15T04:50:23;7.00;;;2.70;;
77016;SDS011;65949;53.132;17.930;2024-01-15T04:52:50;8.50;;;2.40;;
77016;SDS011;65949;53.132;17.930;2024-01-15T04:55:16;7.50;;;2.70;;
77016;SDS011;65949;53.132;17.930;2024-01-15T04:57:43;8.40;;;2.50;;
77016;SDS011;65949;53.132;17.930;2024-01-15T05:00:10;8.80;;;2.80;;
77016;SDS011;65949;53.132;17.930;2024-01-15T05:02:38;4.50;;;1.20;;
77016;SDS011;65949;53.132;17.930;2024-01-15T05:05:05;8.00;;;2.50;;
77016;SDS011;65949;53.132;17.930;2024-01-15T05:07:32;8.40;;;2.60;;
77016;SDS011;65949;53.132;17.930;2024-01-15T05:09:59;6.10;;;1.30;;
77016;SDS011;65949;53.132;17.930;2024-01-15T05:12:25;9.40;;;2.20;;
77016;SDS011;65949;53.132;17.930;2024-01-15T05:14:52;8.50;;;2.10;;
77016;SDS011;65949;53.132;17.930;2024-01-15T05:17:18;7.80;;;1.90;;
77016;SDS011;65949;53.132;17.930;2024-01-15T05:19:45;9.70;;;1.90;;
77016;SDS011;65949;53.132;17.930;2024-01-15T05:22:12;5.60;;;1.00;;
77016;SDS011;65949;53.132;17.930;2024-01-15T05:24:38;7.80;;;1.40;;
77016;SDS011;65949;53.132;17.930;2024-01-15T05:27:05;8.00;;;1.80;;
77016;SDS011;65949;53.132;17.930;2024-01-15T05:29:31;7.60;;;1.20;;
77016;SDS011;65949;53.132;17.930;2024-01-15T05:31:58;7.30;;;1.30;;
77016;SDS011;65949;53.132;17.930;2024-01-15T05:34:24;7.30;;;0.90;;
77016;SDS011;65949;53.132;17.930;2024-01-15T05:36:51;5.80;;;1.20;;
77016;SDS011;65949;53.132;17.930;2024-01-15T05:39:17;4.20;;;0.80;;
77016;SDS011;65949;53.132;17.930;2024-01-15T05:41:44;12.60;;;1.50;;
77016;SDS011;65949;53.132;17.930;2024-01-15T05:44:11;6.00;;;1.20;;
77016;SDS011;65949;53.132;17.930;2024-01-15T05:46:37;4.30;;;0.70;;
77016;SDS011;65949;53.132;17.930;2024-01-15T05:49:04;13.50;;;2.40;;
77016;SDS011;65949;53.132;17.930;2024-01-15T05:51:31;9.20;;;1.20;;
77016;SDS011;65949;53.132;17.930;2024-01-15T05:53:57;9.70;;;1.70;;
77016;SDS011;65949;53.132;17.930;2024-01-15T05:56:24;5.70;;;0.60;;
77016;SDS011;65949;53.132;17.930;2024-01-15T05:58:51;4.30;;;0.60;;
77016;SDS011;65949;53.132;17.930;2024-01-15T06:01:18;7.30;;;1.10;;
77016;SDS011;65949;53.132;17.930;2024-01-15T06:03:45;6.20;;;0.70;;
77016;SDS011;65949;53.132;17.930;2024-01-15T06:06:12;6.60;;;0.70;;
77016;SDS011;65949;53.132;17.930;2024-01-15T06:08:39;5.50;;;0.90;;
77016;SDS011;65949;53.132;17.930;2024-01-15T06:11:06;6.00;;;1.50;;
77016;SDS011;65949;53.132;17.930;2024-01-15T06:13:33;6.50;;;1.40;;
77016;SDS011;65949;53.132;17.930;2024-01-15T06:16:00;7.80;;;1.70;;
77016;SDS011;65949;53.132;17.930;2024-01-15T06:18:26;4.40;;;0.90;;
77016;SDS011;65949;53.132;17.930;2024-01-15T06:20:53;8.20;;;1.50;;
77016;SDS011;65949;53.132;17.930;2024-01-15T06:23:20;6.40;;;1.50;;
77016;SDS011;65949;53.132;17.930;2024-01-15T06:25:47;5.80;;;1.60;;
77016;SDS011;65949;53.132;17.930;2024-01-15T06:28:13;6.50;;;1.60;;
77016;SDS011;65949;53.132;17.930;2024-01-15T06:30:40;6.80;;;1.70;;
77016;SDS011;65949;53.132;17.930;2024-01-15T06:33:06;6.30;;;1.50;;
77016;SDS011;65949;53.132;17.930;2024-01-15T06:35:33;8.20;;;1.80;;
77016;SDS011;65949;53.132;17.930;2024-01-15T06:38:00;6.80;;;1.80;;
77016;SDS011;65949;53.132;17.930;2024-01-15T06:40:27;6.80;;;1.90;;
77016;SDS011;65949;53.132;17.930;2024-01-15T06:42:53;6.70;;;1.90;;
77016;SDS011;65949;53.132;17.930;2024-01-15T06:45:20;7.60;;;2.10;;
77016;SDS011;65949;53.132;17.930;2024-01-15T06:47:47;9.20;;;2.70;;
77016;SDS011;65949;53.132;17.930;2024-01-15T06:50:13;8.40;;;2.60;;
77016;SDS011;65949;53.132;17.930;2024-01-15T06:52:40;18.10;;;6.50;;
77016;SDS011;65949;53.132;17.930;2024-01-15T06:55:06;8.60;;;2.70;;
77016;SDS011;65949;53.132;17.930;2024-01-15T06:57:33;9.90;;;2.30;;
77016;SDS011;65949;53.132;17.930;2024-01-15T07:00:00;9.90;;;2.70;;
77016;SDS011;65949;53.132;17.930;2024-01-15T07:02:27;9.80;;;2.20;;
77016;SDS011;65949;53.132;17.930;2024-01-15T07:04:53;10.30;;;3.00;;
77016;SDS011;65949;53.132;17.930;2024-01-15T07:07:20;11.20;;;2.90;;
77016;SDS011;65949;53.132;17.930;2024-01-15T07:09:47;8.40;;;2.20;;
77016;SDS011;65949;53.132;17.930;2024-01-15T07:12:13;7.90;;;2.00;;
77016;SDS011;65949;53.132;17.930;2024-01-15T07:14:40;6.80;;;1.70;;
77016;SDS011;65949;53.132;17.930;2024-01-15T07:17:06;9.80;;;2.50;;
77016;SDS011;65949;53.132;17.930;2024-01-15T07:19:33;7.10;;;2.20;;
77016;SDS011;65949;53.132;17.930;2024-01-15T07:22:00;6.50;;;2.00;;
77016;SDS011;65949;53.132;17.930;2024-01-15T07:24:26;8.50;;;2.20;;
77016;SDS011;65949;53.132;17.930;2024-01-15T07:26:53;9.40;;;2.80;;
77016;SDS011;65949;53.132;17.930;2024-01-15T07:29:19;9.10;;;2.90;;
77016;SDS011;65949;53.132;17.930;2024-01-15T07:31:49;10.20;;;3.00;;
77016;SDS011;65949;53.132;17.930;2024-01-15T07:34:17;8.70;;;2.90;;
77016;SDS011;65949;53.132;17.930;2024-01-15T07:36:44;10.70;;;3.70;;
77016;SDS011;65949;53.132;17.930;2024-01-15T07:39:11;22.60;;;11.70;;
77016;SDS011;65949;53.132;17.930;2024-01-15T07:41:38;11.70;;;4.30;;
77016;SDS011;65949;53.132;17.930;2024-01-15T07:44:05;6.80;;;2.30;;
77016;SDS011;65949;53.132;17.930;2024-01-15T07:46:31;11.50;;;3.10;;
77016;SDS011;65949;53.132;17.930;2024-01-15T07:48:58;12.30;;;3.20;;
77016;SDS011;65949;53.132;17.930;2024-01-15T07:51:24;8.90;;;2.80;;
77016;SDS011;65949;53.132;17.930;2024-01-15T07:53:53;10.10;;;3.60;;
77016;SDS011;65949;53.132;17.930;2024-01-15T07:56:20;20.90;;;8.70;;
77016;SDS011;65949;53.132;17.930;2024-01-15T07:58:47;14.50;;;6.30;;
77016;SDS011;65949;53.132;17.930;2024-01-15T08:01:14;9.00;;;3.10;;
77016;SDS011;65949;53.132;17.930;2024-01-15T08:03:41;9.40;;;2.90;;
77016;SDS011;65949;53.132;17.930;2024-01-15T08:06:07;9.10;;;2.90;;
77016;SDS011;65949;53.132;17.930;2024-01-15T08:08:36;9.50;;;2.60;;
77016;SDS011;65949;53.132;17.930;2024-01-15T08:11:04;14.00;;;3.10;;
77016;SDS011;65949;53.132;17.930;2024-01-15T08:13:31;13.90;;;3.80;;
77016;SDS011;65949;53.132;17.930;2024-01-15T08:15:58;12.10;;;3.30;;
77016;SDS011;65949;53.132;17.930;2024-01-15T08:18:25;7.80;;;2.20;;
77016;SDS011;65949;53.132;17.930;2024-01-15T08:20:51;8.80;;;3.30;;
77016;SDS011;65949;53.132;17.930;2024-01-15T08:23:18;11.70;;;3.60;;
77016;SDS011;65949;53.132;17.930;2024-01-15T08:25:46;10.40;;;3.00;;
77016;SDS011;65949;53.132;17.930;2024-01-15T08:28:12;18.50;;;4.40;;
77016;SDS011;65949;53.132;17.930;2024-01-15T08:30:39;15.50;;;4.00;;
77016;SDS011;65949;53.132;17.930;2024-01-15T08:33:05;9.90;;;2.80;;
77016;SDS011;65949;53.132;17.930;2024-01-15T08:35:32;10.50;;;2.60;;
77016;SDS011;65949;53.132;17.930;2024-01-15T08:37:59;13.50;;;4.00;;
77016;SDS011;65949;53.132;17.930;2024-01-15T08:40:25;11.50;;;2.80;;
77016;SDS011;65949;53.132;17.930;2024-01-15T08:42:52;9.20;;;2.60;;
77016;SDS011;65949;53.132;17.930;2024-01-15T08:45:18;10.30;;;2.80;;
77016;SDS011;65949;53.132;17.930;2024-01-15T08:47:46;9.90;;;2.30;;
77016;SDS011;65949;53.132;17.930;2024-01-15T08:50:13;9.40;;;2.20;;
77016;SDS011;65949;53.132;17.930;2024-01-15T08:52:39;9.00;;;2.30;;
77016;SDS011;65949;53.132;17.930;2024-01-15T08:55:06;8.80;;;2.60;;
77016;SDS011;65949;53.132;17.930;2024-01-15T08:57:33;7.60;;;1.80;;
77016;SDS011;65949;53.132;17.930;2024-01-15T09:00:00;13.00;;;4.40;;
77016;SDS011;65949;53.132;17.930;2024-01-15T09:02:27;19.50;;;9.30;;
77016;SDS011;65949;53.132;17.930;2024-01-15T09:04:54;9.80;;;3.40;;
77016;SDS011;65949;53.132;17.930;2024-01-15T09:07:20;8.30;;;2.50;;
77016;SDS011;65949;53.132;17.930;2024-01-15T09:09:47;9.20;;;2.30;;
77016;SDS011;65949;53.132;17.930;2024-01-15T09:12:14;7.60;;;1.70;;
77016;SDS011;65949;53.132;17.930;2024-01-15T09:14:41;8.20;;;2.20;;
77016;SDS011;65949;53.132;17.930;2024-01-15T09:17:08;10.30;;;2.70;;
77016;SDS011;65949;53.132;17.930;2024-01-15T09:19:34;9.80;;;2.30;;
77016;SDS011;65949;53.132;17.930;2024-01-15T09:22:01;8.10;;;2.60;;
77016;SDS011;65949;53.132;17.930;2024-01-15T09:24:28;8.80;;;2.20;;
77016;SDS011;65949;53.132;17.930;2024-01-15T09:26:54;10.80;;;2.40;;
77016;SDS011;65949;53.132;17.930;2024-01-15T09:29:21;9.30;;;2.50;;
77016;SDS011;65949;53.132;17.930;2024-01-15T09:31:50;9.90;;;3.00;;
77016;SDS011;65949;53.132;17.930;2024-01-15T09:34:17;8.10;;;2.20;;
77016;SDS011;65949;53.132;17.930;2024-01-15T09:36:44;9.70;;;2.40;;
77016;SDS011;65949;53.132;17.930;2024-01-15T09:39:10;20.00;;;8.60;;
77016;SDS011;65949;53.132;17.930;2024-01-15T09:41:37;10.50;;;3.20;;
77016;SDS011;65949;53.132;17.930;2024-01-15T09:44:04;8.30;;;2.40;;
77016;SDS011;65949;53.132;17.930;2024-01-15T09:46:31;7.10;;;1.80;;
77016;SDS011;65949;53.132;17.930;2024-01-15T09:48:59;7.70;;;2.10;;
77016;SDS011;65949;53.132;17.930;2024-01-15T09:51:29;6.00;;;1.40;;
77016;SDS011;65949;53.132;17.930;2024-01-15T09:53:58;8.10;;;2.40;;
77016;SDS011;65949;53.132;17.930;2024-01-15T09:56:25;5.90;;;1.70;;
77016;SDS011;65949;53.132;17.930;2024-01-15T09:58:51;8.50;;;2.80;;
77016;SDS011;65949;53.132;17.930;2024-01-15T10:01:22;9.60;;;3.00;;
77016;SDS011;65949;53.132;17.930;2024-01-15T10:03:50;10.50;;;2.70;;
77016;SDS011;65949;53.132;17.930;2024-01-15T10:06:17;12.40;;;3.60;;
77016;SDS011;65949;53.132;17.930;2024-01-15T10:08:50;15.40;;;3.40;;
77016;SDS011;65949;53.132;17.930;2024-01-15T10:11:17;12.30;;;3.00;;
77016;SDS011;65949;53.132;17.930;2024-01-15T10:13:44;10.10;;;2.70;;
77016;SDS011;65949;53.132;17.930;2024-01-15T10:16:11;11.60;;;3.50;;
77016;SDS011;65949;53.132;17.930;2024-01-15T10:18:38;44.30;;;15.10;;
77016;SDS011;65949;53.132;17.930;2024-01-15T10:21:06;9.50;;;4.00;;
77016;SDS011;65949;53.132;17.930;2024-01-15T10:23:34;5.70;;;1.60;;
77016;SDS011;65949;53.132;17.930;2024-01-15T10:26:05;6.10;;;1.60;;
77016;SDS011;65949;53.132;17.930;2024-01-15T10:28:32;4.90;;;1.20;;
77016;SDS011;65949;53.132;17.930;2024-01-15T10:30:59;7.30;;;1.40;;
77016;SDS011;65949;53.132;17.930;2024-01-15T10:33:27;7.70;;;1.70;;
77016;SDS011;65949;53.132;17.930;2024-01-15T10:35:54;6.40;;;1.70;;
77016;SDS011;65949;53.132;17.930;2024-01-15T10:38:22;8.20;;;1.50;;
77016;SDS011;65949;53.132;17.930;2024-01-15T10:40:52;6.90;;;1.10;;
77016;SDS011;65949;53.132;17.930;2024-01-15T10:43:21;6.10;;;1.00;;
77016;SDS011;65949;53.132;17.930;2024-01-15T10:45:49;5.60;;;1.30;;
77016;SDS011;65949;53.132;17.930;2024-01-15T10:48:17;8.40;;;1.70;;
77016;SDS011;65949;53.132;17.930;2024-01-15T10:50:48;9.30;;;1.70;;
77016;SDS011;65949;53.132;17.930;2024-01-15T10:53:15;7.60;;;1.40;;
77016;SDS011;65949;53.132;17.930;2024-01-15T10:55:43;7.10;;;1.10;;
77016;SDS011;65949;53.132;17.930;2024-01-15T10:58:10;8.20;;;1.90;;
77016;SDS011;65949;53.132;17.930;2024-01-15T11:00:36;5.70;;;1.10;;
77016;SDS011;65949;53.132;17.930;2024-01-15T11:03:07;7.50;;;1.50;;
77016;SDS011;65949;53.132;17.930;2024-01-15T11:05:37;11.80;;;1.80;;
77016;SDS011;65949;53.132;17.930;2024-01-15T11:08:16;6.40;;;1.10;;
77016;SDS011;65949;53.132;17.930;2024-01-15T11:10:45;8.00;;;1.80;;
77016;SDS011;65949;53.132;17.930;2024-01-15T11:13:20;8.30;;;1.70;;
77016;SDS011;65949;53.132;17.930;2024-01-15T11:16:00;7.80;;;1.70;;
77016;SDS011;65949;53.132;17.930;2024-01-15T11:18:40;7.50;;;2.00;;
77016;SDS011;65949;53.132;17.930;2024-01-15T11:26:26;9.10;;;2.20;;
77016;SDS011;65949;53.132;17.930;2024-01-15T11:28:55;8.50;;;2.80;;
77016;SDS011;65949;53.132;17.930;2024-01-15T11:31:27;8.00;;;2.10;;
77016;SDS011;65949;53.132;17.930;2024-01-15T11:34:10;8.10;;;1.70;;
77016;SDS011;65949;53.132;17.930;2024-01-15T11:41:59;8.60;;;1.40;;
77016;SDS011;65949;53.132;17.930;2024-01-15T11:44:27;7.60;;;1.10;;
77016;SDS011;65949;53.132;17.930;2024-01-15T11:46:59;6.20;;;1.00;;
77016;SDS011;65949;53.132;17.930;2024-01-15T11:52:31;3.50;;;0.50;;
77016;SDS011;65949;53.132;17.930;2024-01-15T11:55:12;6.40;;;1.00;;
77016;SDS011;65949;53.132;17.930;2024-01-15T11:57:46;6.50;;;0.40;;
77016;SDS011;65949;53.132;17.930;2024-01-15T12:00:17;6.60;;;0.90;;
77016;SDS011;65949;53.132;17.930;2024-01-15T12:02:45;4.80;;;1.00;;
77016;SDS011;65949;53.132;17.930;2024-01-15T12:05:13;4.20;;;0.60;;
77016;SDS011;65949;53.132;17.930;2024-01-15T12:07:49;6.70;;;1.10;;
77016;SDS011;65949;53.132;17.930;2024-01-15T12:10:17;7.20;;;1.10;;
77016;SDS011;65949;53.132;17.930;2024-01-15T12:12:48;11.40;;;2.90;;
77016;SDS011;65949;53.132;17.930;2024-01-15T12:15:29;17.80;;;3.90;;
77016;SDS011;65949;53.132;17.930;2024-01-15T12:17:57;16.30;;;2.20;;
77016;SDS011;65949;53.132;17.930;2024-01-15T12:20:25;12.40;;;2.50;;
77016;SDS011;65949;53.132;17.930;2024-01-15T12:22:52;10.00;;;2.10;;
77016;SDS011;65949;53.132;17.930;2024-01-15T12:25:21;7.80;;;1.80;;
77016;SDS011;65949;53.132;17.930;2024-01-15T12:27:49;7.20;;;1.40;;
77016;SDS011;65949;53.132;17.930;2024-01-15T12:30:15;10.90;;;1.50;;
77016;SDS011;65949;53.132;17.930;2024-01-15T12:32:42;8.90;;;2.10;;
77016;SDS011;65949;53.132;17.930;2024-01-15T12:35:12;7.00;;;1.50;;
77016;SDS011;65949;53.132;17.930;2024-01-15T12:37:40;8.40;;;2.10;;
77016;SDS011;65949;53.132;17.930;2024-01-15T12:40:08;10.40;;;2.40;;
77016;SDS011;65949;53.132;17.930;2024-01-15T12:42:36;12.30;;;3.80;;
77016;SDS011;65949;53.132;17.930;2024-01-15T12:45:05;8.10;;;1.50;;
77016;SDS011;65949;53.132;17.930;2024-01-15T12:47:32;5.20;;;0.70;;
77016;SDS011;65949;53.132;17.930;2024-01-15T12:49:59;4.00;;;0.60;;
77016;SDS011;65949;53.132;17.930;2024-01-15T12:52:27;4.00;;;0.80;;
77016;SDS011;65949;53.132;17.930;2024-01-15T12:54:54;4.20;;;0.60;;
77016;SDS011;65949;53.132;17.930;2024-01-15T12:57:21;6.40;;;0.70;;
77016;SDS011;65949;53.132;17.930;2024-01-15T12:59:48;5.50;;;0.90;;
77016;SDS011;65949;53.132;17.930;2024-01-15T13:02:16;10.80;;;2.00;;
77016;SDS011;65949;53.132;17.930;2024-01-15T13:04:43;6.30;;;0.80;;
77016;SDS011;65949;53.132;17.930;2024-01-15T13:07:10;5.50;;;1.00;;
77016;SDS011;65949;53.132;17.930;2024-01-15T13:09:36;5.40;;;0.80;;
77016;SDS011;65949;53.132;17.930;2024-01-15T13:12:03;6.30;;;0.70;;
77016;SDS011;65949;53.132;17.930;2024-01-15T13:14:30;4.90;;;0.70;;
77016;SDS011;65949;53.132;17.930;2024-01-15T13:16:56;5.00;;;0.80;;
77016;SDS011;65949;53.132;17.930;2024-01-15T13:19:25;6.40;;;1.30;;
77016;SDS011;65949;53.132;17.930;2024-01-15T13:21:51;9.00;;;2.10;;
77016;SDS011;65949;53.132;17.930;2024-01-15T13:24:20;5.00;;;0.80;;
77016;SDS011;65949;53.132;17.930;2024-01-15T13:26:48;14.70;;;2.50;;
77016;SDS011;65949;53.132;17.930;2024-01-15T13:29:14;6.30;;;0.80;;
77016;SDS011;65949;53.132;17.930;2024-01-15T13:31:41;6.40;;;0.80;;
77016;SDS011;65949;53.132;17.930;2024-01-15T13:34:08;3.40;;;0.60;;
77016;SDS011;65949;53.132;17.930;2024-01-15T13:36:35;7.70;;;0.90;;
77016;SDS011;65949;53.132;17.930;2024-01-15T13:39:02;5.00;;;0.60;;
77016;SDS011;65949;53.132;17.930;2024-01-15T13:41:29;7.00;;;1.10;;
77016;SDS011;65949;53.132;17.930;2024-01-15T13:43:56;7.30;;;0.70;;
77016;SDS011;65949;53.132;17.930;2024-01-15T13:46:23;4.10;;;0.60;;
77016;SDS011;65949;53.132;17.930;2024-01-15T13:48:52;5.40;;;0.60;;
77016;SDS011;65949;53.132;17.930;2024-01-15T13:51:22;5.20;;;0.50;;
77016;SDS011;65949;53.132;17.930;2024-01-15T13:53:50;6.20;;;1.10;;
77016;SDS011;65949;53.132;17.930;2024-01-15T13:56:17;3.30;;;0.50;;
77016;SDS011;65949;53.132;17.930;2024-01-15T13:58:44;7.10;;;1.20;;
77016;SDS011;65949;53.132;17.930;2024-01-15T14:01:10;5.50;;;1.00;;
77016;SDS011;65949;53.132;17.930;2024-01-15T14:03:37;7.70;;;1.10;;
77016;SDS011;65949;53.132;17.930;2024-01-15T14:06:04;7.40;;;1.30;;
77016;SDS011;65949;53.132;17.930;2024-01-15T14:08:35;6.30;;;1.10;;
77016;SDS011;65949;53.132;17.930;2024-01-15T14:11:06;10.90;;;2.70;;
77016;SDS011;65949;53.132;17.930;2024-01-15T14:13:33;11.80;;;2.60;;
77016;SDS011;65949;53.132;17.930;2024-01-15T14:16:00;10.50;;;2.60;;
77016;SDS011;65949;53.132;17.930;2024-01-15T14:18:27;13.30;;;3.00;;
77016;SDS011;65949;53.132;17.930;2024-01-15T14:20:54;4.60;;;0.80;;
77016;SDS011;65949;53.132;17.930;2024-01-15T14:23:21;3.90;;;0.50;;
77016;SDS011;65949;53.132;17.930;2024-01-15T14:25:47;7.10;;;1.50;;
77016;SDS011;65949;53.132;17.930;2024-01-15T14:28:14;8.50;;;2.50;;
77016;SDS011;65949;53.132;17.930;2024-01-15T14:30:41;32.20;;;9.00;;
77016;SDS011;65949;53.132;17.930;2024-01-15T14:33:08;51.00;;;11.40;;
77016;SDS011;65949;53.132;17.930;2024-01-15T14:35:34;12.20;;;2.40;;
77016;SDS011;65949;53.132;17.930;2024-01-15T14:38:01;7.50;;;1.30;;
77016;SDS011;65949;53.132;17.930;2024-01-15T14:40:27;7.20;;;1.50;;
77016;SDS011;65949;53.132;17.930;2024-01-15T14:42:54;6.00;;;1.20;;